Winston Salem, North Carolina
Current Conditions -  °F | °C
As of 10:54 PM on Thursday 18 Dec 2014 (Local Time) from KINT Reporting Station
Broken Clouds Broken Clouds  
Wind Chill: 42°   Ceiling: 7000
Heat Index: 42°   Visibility: 10mi
Dew Point: 23°   Wind: 0mph
Humidity: 47%   Direction: NA
Pressure: 30.11"   Gusts: NA
Location:  36.1112°N, 80.1999°W
Report Text: KINT 190354Z 00000KT 10SM BKN070 06/M05 A3011 RMK AO2 SLP196 T00561050
Loading
Personal Weather Stations






























Interactive Weather Map New forecast layout! Learn more

10-Day Weather Forecast

Advertisements
Track Severe Weather on mobile